Sill Hill (79, 626) Station Data

Red Flag Warning: No
Fire Weather Zone: 258
SDGE Region: Mountain Empire
Lat/Lon: 32.954/-116.643

Observations

Time Wind Speed/Gust Temp(F) RH Fuel Moist Fuel Temp(F) Dewpt(F) Tmax(F) Tmin(F) Accum Precip 10-min Precip SL Press(mb)
4/30 12:00am 86 7 G 8 60° 17% - - 15° 68.7° 53.8° - - 1018.0
4/29 11:50pm 84 7 G 8 60° 18% - - 15° 68.7° 53.8° - - 1018.0
4/29 11:40pm 80 6 G 7 60° 18% - - 16° 68.7° 53.8° - - 1018.0
4/29 11:30pm 84 6 G 8 59° 18% - - 15° 68.7° 53.8° - - 1019.0
4/29 11:20pm 86 7 G 8 59° 18% - - 16° 68.7° 53.8° - - 1018.0
4/29 11:10pm 82 6 G 8 59° 18% - - 16° 68.7° 53.8° - - 1018.0
4/29 11:00pm 83 7 G 8 59° 19% - - 17° 68.7° 53.8° - - 1019.0
4/29 10:50pm 81 6 G 8 58° 20% - - 17° 68.7° 53.8° - - 1019.0
4/29 10:40pm 83 7 G 8 58° 20% - - 18° 68.7° 53.8° - - 1019.0
4/29 10:30pm 84 7 G 8 58° 21% - - 18° 68.7° 53.8° - - 1019.0
4/29 10:20pm 87 8 G 9 58° 22% - - 19° 68.7° 53.8° - - 1019.0
4/29 10:10pm 85 8 G 9 58° 23% - - 20° 68.7° 53.8° - - 1019.0
4/29 10:00pm 87 8 G 10 58° 24% - - 21° 68.7° 53.8° - - 1019.0
4/29 9:50pm 86 8 G 10 58° 25% - - 22° 68.7° 53.8° - - 1019.0
4/29 9:40pm 89 7 G 8 57° 27% - - 24° 68.7° 53.8° - - 1019.0
4/29 9:30pm 84 7 G 8 58° 27% - - 24° 68.7° 53.8° - - 1019.0
4/29 9:20pm 75 5 G 7 58° 27% - - 25° 68.7° 53.8° - - 1018.0
4/29 9:10pm 76 5 G 7 58° 28% - - 25° 68.7° 53.8° - - 1018.0
4/29 9:00pm 76 4 G 5 58° 28% - - 25° 68.7° 53.8° - - 1018.0
4/29 8:50pm 85 6 G 7 57° 29% - - 25° 68.7° 53.8° - - 1018.0
4/29 8:40pm 88 6 G 7 57° 30% - - 25° 68.7° 53.8° - - 1018.0
4/29 8:30pm 93 5 G 6 57° 29% - - 26° 68.7° 53.8° - - 1018.0
4/29 8:20pm 92 3 G 4 58° 29% - - 26° 68.7° 53.8° - - 1018.0
4/29 8:10pm 84 4 G 6 57° 30% - - 26° 68.7° 53.8° - - 1018.0
4/29 8:00pm 74 5 G 7 57° 30% - - 26° 68.7° 53.8° - - 1017.0
4/29 7:50pm 62 4 G 5 58° 29% - - 26° 68.7° 53.8° - - 1017.0
4/29 7:40pm 2 3 G 4 59° 27% - - 26° 68.7° 53.8° - - 1016.0
4/29 7:30pm 2 3 G 5 60° 27% - - 26° 68.7° 53.8° - - 1016.0
4/29 7:20pm 350 4 G 5 62° 25% - - 26° 68.7° 53.8° - - 1016.0
4/29 7:10pm 325 3 G 5 63° 25% - - 26° 68.7° 53.8° - - 1016.0
4/29 7:00pm 316 4 G 7 63° 24% - - 26° 68.7° 53.8° - - 1016.0
4/29 6:50pm 298 5 G 8 64° 23% - - 25° 68.7° 53.8° - - 1015.0
4/29 6:40pm 271 5 G 9 65° 21% - - 24° 68.7° 53.8° - - 1015.0
4/29 6:30pm 242 6 G 12 65° 19% - - 22° 68.7° 53.8° - - 1015.0
4/29 6:20pm 233 7 G 11 65° 19% - - 22° 68.7° 53.8° - - 1015.0
4/29 6:10pm 227 9 G 15 66° 18% - - 21° 68.7° 53.8° - - 1014.0
4/29 6:00pm 250 8 G 13 67° 18% - - 23° 68.7° 53.8° - - 1014.0
4/29 5:50pm 220 4 G 9 67° 18% - - 22° 68.7° 53.8° - - 1014.0
4/29 5:40pm 309 7 G 11 68° 13% - - 14° 68.7° 53.8° - - 1013.0
4/29 5:30pm 61 10 G 17 68° 11% - - 12° 68.7° 53.8° - - 1013.0
4/29 5:20pm 89 8 G 13 68° 11% - - 11° 68.7° 53.8° - - 1013.0
4/29 5:10pm 78 9 G 16 68° 11% - - 12° 68.7° 53.8° - - 1013.0
4/29 5:00pm 62 11 G 18 68° 11% - - 11° 68.7° 53.8° - - 1013.0
4/29 4:50pm 55 9 G 16 68° 12% - - 13° 68.7° 53.8° - - 1013.0
4/29 4:40pm 77 9 G 20 68° 11% - - 10° 68.2° 53.8° - - 1013.0
4/29 4:30pm 85 10 G 19 67° 11% - - 10° 68.2° 53.8° - - 1013.0
4/29 4:20pm 80 12 G 18 67° 11% - - 11° 68.2° 53.8° - - 1013.0
4/29 4:10pm 53 10 G 17 67° 11% - - 12° 68.1° 53.8° - - 1013.0
4/29 4:00pm 77 9 G 18 67° 12% - - 12° 68.1° 53.8° - - 1013.0
4/29 3:50pm 55 10 G 16 67° 11% - - 11° 67.8° 53.8° - - 1013.0
4/29 3:40pm 71 12 G 24 67° 12% - - 12° 67.5° 53.8° - - 1013.0
4/29 3:30pm 65 11 G 17 67° 12% - - 12° 67.5° 53.8° - - 1014.0
4/29 3:20pm 70 12 G 20 66° 12% - - 12° 67° 53.8° - - 1014.0
4/29 3:10pm 89 11 G 22 66° 12% - - 12° 67° 53.8° - - 1014.0
4/29 3:00pm 73 9 G 16 66° 12% - - 13° 67° 53.8° - - 1014.0
4/29 2:50pm 58 9 G 19 66° 13% - - 13° 67° 53.8° - - 1014.0
4/29 2:40pm 54 11 G 23 65° 12% - - 11° 66.6° 53.8° - - 1014.0
4/29 2:30pm 74 12 G 20 65° 12% - - 12° 66.6° 53.8° - - 1014.0
4/29 2:20pm 61 7 G 18 65° 13% - - 14° 66.6° 53.8° - - 1014.0
4/29 2:10pm 97 9 G 20 65° 11% - - 66.3° 53.8° - - 1015.0
4/29 2:00pm 43 10 G 21 65° 12% - - 10° 66.3° 53.8° - - 1014.0
4/29 1:50pm 30 10 G 21 65° 13% - - 12° 66.3° 53.8° - - 1014.0
4/29 1:40pm 38 8 G 18 66° 15% - - 16° 66.3° 53.8° - - 1014.0
4/29 1:30pm 86 6 G 21 65° 14% - - 14° 65.8° 53.8° - - 1014.0
4/29 1:20pm 17 6 G 23 64° 15% - - 15° 65.7° 53.8° - - 1014.0
4/29 1:10pm 136 11 G 22 64° 14% - - 14° 64.6° 53.8° - - 1015.0
4/29 1:00pm 131 8 G 22 64° 14% - - 14° 64.5° 53.8° - - 1015.0
4/29 12:50pm 120 12 G 24 63° 15% - - 14° 64.1° 53.8° - - 1015.0
4/29 12:40pm 117 15 G 25 62° 15% - - 14° 63.1° 53.8° - - 1015.0
4/29 12:30pm 112 17 G 33 62° 15% - - 14° 63.1° 53.8° - - 1015.0
4/29 12:20pm 86 17 G 28 62° 15% - - 14° 63.1° 53.8° - - 1015.0
4/29 12:10pm 92 18 G 26 62° 16% - - 15° 63.1° 53.8° - - 1015.0
4/29 12:00pm 95 21 G 27 61° 15% - - 13° 63.1° 53.8° - - 1015.0
4/29 11:50am 96 18 G 27 62° 15% - - 14° 63.1° 53.8° - - 1014.0
4/29 11:40am 101 17 G 27 62° 15% - - 14° 62.6° 53.8° - - 1015.0
4/29 11:30am 93 16 G 24 62° 14% - - 12° 62.6° 53.8° - - 1014.0
4/29 11:20am 90 18 G 29 61° 15% - - 13° 62.1° 53.8° - - 1014.0
4/29 11:10am 93 18 G 30 61° 14% - - 12° 61.5° 53.8° - - 1014.0
4/29 11:00am 101 21 G 34 60° 15% - - 12° 61.4° 53.8° - - 1015.0
4/29 10:50am 94 22 G 32 60° 14% - - 10° 61.4° 53.8° - - 1014.0
4/29 10:40am 90 24 G 34 60° 13% - - 61.4° 53.8° - - 1014.0
4/29 10:30am 91 22 G 34 60° 13% - - 61.4° 53.8° - - 1014.0
4/29 10:20am 90 26 G 38 60° 14% - - 11° 61.4° 53.8° - - 1014.0
4/29 10:10am 84 26 G 44 59° 14% - - 10° 61.4° 53.8° - - 1014.0
4/29 10:00am 84 23 G 39 59° 14% - - 61.4° 53.8° - - 1014.0
4/29 9:50am 96 29 G 42 58° 14% - - 61.4° 53.8° - - 1014.0
4/29 9:40am 91 32 G 44 58° 13% - - 61.4° 53.8° - - 1014.0
4/29 9:30am 87 32 G 48 58° 13% - - 61.4° 53.8° - - 1013.0
4/29 9:20am 87 29 G 40 58° 13% - - 61.4° 53.8° - - 1013.0
4/29 9:10am 97 32 G 43 58° 13% - - 61.4° 53.8° - - 1013.0
4/29 9:00am 86 32 G 43 57° 14% - - 61.4° 53.8° - - 1013.0
4/29 8:50am 85 31 G 43 57° 14% - - 61.4° 53.8° - - 1013.0
4/29 8:40am 80 28 G 43 56° 14% - - 61.4° 53.8° - - 1013.0
4/29 8:30am 83 33 G 46 56° 14% - - 61.4° 53.8° - - 1013.0
4/29 8:20am 77 30 G 42 56° 13% - - 61.4° 53.8° - - 1013.0
4/29 8:10am 83 33 G 47 56° 13% - - 61.4° 53.8° - - 1013.0
4/29 8:00am 81 33 G 49 56° 13% - - 61.4° 53.8° - - 1013.0
4/29 7:50am 88 36 G 49 56° 12% - - 61.4° 53.8° - - 1013.0
4/29 7:40am 87 34 G 48 55° 13% - - 61.4° 53.8° - - 1013.0
4/29 7:30am 81 34 G 46 55° 13% - - 61.4° 53.8° - - 1013.0
4/29 7:20am 88 35 G 49 55° 13% - - 61.4° 53.8° - - 1012.0
4/29 7:10am 88 34 G 48 55° 13% - - 61.4° 53.8° - - 1012.0
4/29 7:00am 86 33 G 46 55° 12% - - 61.4° 53.8° - - 1012.0
4/29 6:50am 81 34 G 48 54° 13% - - 61.4° 53.8° - - 1012.0
4/29 6:40am 85 37 G 49 55° 13% - - 61.4° 53.8° - - 1012.0
4/29 6:30am 82 33 G 49 54° 14% - - 61.4° 53.8° - - 1012.0
4/29 6:20am 81 34 G 52 54° 14% - - 61.4° 54° - - 1012.0
4/29 6:10am 82 35 G 49 55° 14% - - 61.4° 54° - - 1012.0
4/29 6:00am 85 34 G 48 54° 14% - - 61.4° 54° - - 1012.0
4/29 5:50am 80 31 G 40 54° 15% - - 61.4° 54° - - 1012.0
4/29 5:40am 89 36 G 49 55° 14% - - 61.4° 54.1° - - 1011.0
4/29 5:30am 94 38 G 49 55° 14% - - 61.4° 54.5° - - 1011.0
4/29 5:20am 92 35 G 56 55° 14% - - 61.4° 54.5° - - 1011.0
4/29 5:10am 86 34 G 49 55° 14% - - 61.4° 54.6° - - 1011.0
4/29 5:00am 84 34 G 48 55° 14% - - 61.4° 54.6° - - 1011.0
4/29 4:50am 89 32 G 48 55° 14% - - 61.4° 54.6° - - 1011.0
4/29 4:40am 86 31 G 51 55° 14% - - 61.4° 54.8° - - 1011.0
4/29 4:30am 92 34 G 53 56° 14% - - 61.4° 55.2° - - 1011.0
4/29 4:20am 88 30 G 48 56° 14% - - 61.4° 55.2° - - 1011.0
4/29 4:10am 89 34 G 48 56° 14% - - 61.4° 55.4° - - 1011.0
4/29 4:00am 92 35 G 57 56° 14% - - 61.4° 55.8° - - 1011.0
4/29 3:50am 89 36 G 50 56° 15% - - 61.4° 55.9° - - 1011.0
4/29 3:40am 86 33 G 49 57° 15% - - 61.4° 56.1° - - 1010.0
4/29 3:30am 89 34 G 47 57° 15% - - 61.4° 56.2° - - 1010.0
4/29 3:20am 91 36 G 50 57° 15% - - 61.4° 56.3° - - 1010.0
4/29 3:10am 88 38 G 52 57° 15% - - 61.4° 56.4° - - 1010.0
4/29 3:00am 88 38 G 52 57° 15% - - 61.4° 56.6° - - 1010.0
4/29 2:50am 86 38 G 50 57° 15% - - 61.4° 56.9° - - 1010.0
4/29 2:40am 88 34 G 51 58° 14% - - 61.4° 56.9° - - 1010.0
4/29 2:30am 85 37 G 48 58° 14% - - 61.4° 57.3° - - 1010.0
4/29 2:20am 89 34 G 49 58° 14% - - 61.4° 57.6° - - 1010.0
4/29 2:10am 87 34 G 47 58° 14% - - 61.4° 57.8° - - 1010.0
4/29 2:00am 83 30 G 44 58° 13% - - 61.4° 58° - - 1010.0
4/29 1:50am 86 30 G 46 59° 13% - - 61.4° 58.2° - - 1010.0
4/29 1:40am 86 30 G 42 59° 13% - - 61.4° 58.6° - - 1010.0
4/29 1:30am 85 30 G 46 59° 13% - - 61.4° 58.9° - - 1010.0
4/29 1:20am 87 31 G 43 60° 13% - - 61.4° 59.1° - - 1009.0
4/29 1:10am 84 29 G 44 60° 14% - - 10° 61.4° 59.3° - - 1010.0
4/29 1:00am 83 26 G 41 60° 14% - - 10° 61.4° 59.5° - - 1010.0
4/29 12:50am 86 25 G 38 60° 14% - - 11° 61.4° 59.5° - - 1009.0
4/29 12:40am 85 27 G 42 61° 14% - - 11° 61.4° 59.5° - - 1009.0
4/29 12:30am 89 28 G 44 61° 14% - - 12° 61.4° 59.5° - - 1009.0
4/29 12:20am 88 26 G 40 61° 15% - - 13° 61.3° 59.5° - - 1009.0
4/29 12:10am 96 21 G 29 60° 16% - - 13° 60.6° 59.5° - - 1009.0
4/29 12:00am 101 20 G 27 60° 16% - - 13° 68.7° 49.1° - - 1009.0
4/28 11:50pm 102 17 G 26 60° 16% - - 14° 68.7° 49.1° - - 1009.0
4/28 11:40pm 103 11 G 17 60° 17% - - 15° 68.7° 49.1° - - 1009.0
4/28 11:30pm 104 12 G 17 60° 18% - - 16° 68.7° 49.1° - - 1009.0
4/28 11:20pm 104 14 G 17 60° 21% - - 20° 68.7° 49.1° - - 1009.0
4/28 11:10pm 116 10 G 15 60° 30% - - 29° 68.7° 49.1° - - 1009.0
4/28 11:00pm 94 7 G 10 60° 41% - - 36° 68.7° 49.1° - - 1009.0
4/28 10:50pm 47 8 G 11 60° 38% - - 35° 68.7° 49.1° - - 1009.0
4/28 10:40pm 61 10 G 13 61° 38% - - 35° 68.7° 49.1° - - 1009.0
4/28 10:30pm 66 13 G 17 61° 39% - - 36° 68.7° 49.1° - - 1009.0
4/28 10:20pm 54 9 G 16 59° 43% - - 36° 68.7° 49.1° - - 1010.0
4/28 10:10pm 55 6 G 10 59° 44% - - 36° 68.7° 49.1° - - 1010.0
4/28 10:00pm 41 8 G 10 59° 43% - - 37° 68.7° 49.1° - - 1010.0
4/28 9:50pm 65 10 G 15 58° 44% - - 36° 68.7° 49.1° - - 1010.0
4/28 9:40pm 88 9 G 14 58° 42% - - 35° 68.7° 49.1° - - 1010.0
4/28 9:30pm 86 4 G 7 59° 40% - - 35° 68.7° 49.1° - - 1009.0
4/28 9:20pm 297 2 G 3 59° 39% - - 34° 68.7° 49.1° - - 1009.0
4/28 9:10pm 44 1 G 3 59° 41% - - 35° 68.7° 49.1° - - 1009.0
4/28 9:00pm 90 4 G 5 57° 45% - - 36° 68.7° 49.1° - - 1009.0
4/28 8:50pm 86 4 G 6 56° 48% - - 37° 68.7° 49.1° - - 1010.0
4/28 8:40pm 60 3 G 5 56° 49% - - 37° 68.7° 49.1° - - 1010.0
4/28 8:30pm 108 2 G 3 56° 48% - - 37° 68.7° 49.1° - - 1009.0
4/28 8:20pm 65 3 G 5 56° 49% - - 37° 68.7° 49.1° - - 1009.0
4/28 8:10pm 51 4 G 6 55° 51% - - 37° 68.7° 49.1° - - 1009.0
4/28 8:00pm 72 5 G 6 55° 52% - - 38° 68.7° 49.1° - - 1009.0
4/28 7:50pm 40 4 G 6 55° 49% - - 37° 68.7° 49.1° - - 1009.0
4/28 7:40pm 27 4 G 6 56° 48% - - 37° 68.7° 49.1° - - 1009.0
4/28 7:30pm 357 4 G 6 57° 47% - - 37° 68.7° 49.1° - - 1009.0
4/28 7:20pm 349 3 G 5 57° 47% - - 37° 68.7° 49.1° - - 1008.0
4/28 7:10pm 337 4 G 6 58° 47% - - 38° 68.7° 49.1° - - 1008.0
4/28 7:00pm 323 4 G 7 59° 46% - - 38° 68.7° 49.1° - - 1008.0
4/28 6:50pm 310 5 G 8 59° 48% - - 39° 68.7° 49.1° - - 1008.0
4/28 6:40pm 298 5 G 8 59° 51% - - 41° 68.7° 49.1° - - 1007.0
4/28 6:30pm 297 5 G 8 60° 50% - - 41° 68.7° 49.1° - - 1007.0
4/28 6:20pm 304 5 G 8 61° 50% - - 42° 68.7° 49.1° - - 1007.0
4/28 6:10pm 305 6 G 10 61° 50% - - 42° 68.7° 49.1° - - 1007.0
4/28 6:00pm 307 6 G 8 61° 50% - - 42° 68.7° 49.1° - - 1007.0